Time;durP1;ratioP1;P1;durP2;ratioP2;P2;SDS_P1;SDS_P2;PMS_P1;PMS_P2;Temp;Humidity;BMP_temperature;BMP_pressure;BME280_temperature;BME280_humidity;BME280_pressure;Samples;Min_cycle;Max_cycle;Signal;HPM_P1;HPM_P2
2021/11/10 00:02:01;;;;;;;;;;;6.00;99.90;;;;;;5089550;28;20517;-79
2021/11/10 00:04:26;;;;;;;;;;;5.90;99.90;;;;;;5093369;28;19915;-79
2021/11/10 00:06:52;;;;;;;;;;;5.90;99.90;;;;;;5093686;28;19920;-79
2021/11/10 00:09:18;;;;;;;;;;;5.80;99.90;;;;;;5085329;28;19912;-79
2021/11/10 00:11:43;;;;;;;;;;;5.80;99.90;;;;;;5094373;28;19979;-79
2021/11/10 00:14:09;;;;;;;;;;;5.70;99.90;;;;;;5093929;28;19928;-80
2021/11/10 00:16:35;;;;;;;;;;;5.70;99.90;;;;;;5094504;28;19951;-79
2021/11/10 00:19:00;;;;;;;;;;;5.70;99.90;;;;;;5087246;28;19908;-79
2021/11/10 00:21:26;;;;;;;;;;;5.70;99.90;;;;;;5106037;28;19973;-79
2021/11/10 00:23:52;;;;;;;;;;;5.70;99.90;;;;;;5110083;28;19919;-80
2021/11/10 00:26:18;;;;;;;;;;;5.60;1.00;;;;;;5114372;28;19962;-79
2021/11/10 00:28:44;;;;;;;;;;;5.60;1.00;;;;;;5111809;28;19912;-79
2021/11/10 00:31:09;;;;;;;;;;;5.70;1.00;;;;;;5109501;28;19980;-78
2021/11/10 00:33:35;;;;;;;;;;;5.70;99.90;;;;;;5098495;28;19912;-79
2021/11/10 00:36:00;;;;;;;;;;;5.70;99.90;;;;;;5104110;28;19984;-79
2021/11/10 00:38:26;;;;;;;;;;;5.70;99.90;;;;;;5099360;28;19923;-79
2021/11/10 00:40:51;;;;;;;;;;;5.70;99.90;;;;;;5104110;28;20379;-79
2021/11/10 00:43:17;;;;;;;;;;;5.70;99.90;;;;;;5096257;28;19923;-79
2021/11/10 00:45:42;;;;;;;;;;;5.70;99.90;;;;;;5090317;28;19917;-79
2021/11/10 00:48:10;;;;;;;;;;;5.70;99.90;;;;;;5097082;28;19913;-79
2021/11/10 00:50:36;;;;;;;;;;;5.70;99.90;;;;;;5102023;28;19919;-79
2021/11/10 00:53:03;;;;;;;;;;;5.70;99.90;;;;;;5102060;28;19912;-79
2021/11/10 00:55:29;;;;;;;;;;;5.60;99.90;;;;;;5095296;28;19920;-79
2021/11/10 00:57:54;;;;;;;;;;;5.60;99.90;;;;;;5094054;28;19912;-79
2021/11/10 01:00:21;;;;;;;;;;;5.60;99.90;;;;;;5098222;28;19919;-79
2021/11/10 01:02:46;;;;;;;;;;;5.50;99.90;;;;;;5095934;28;19916;-79
2021/11/10 01:05:12;;;;;;;;;;;5.50;99.90;;;;;;5099292;28;20398;-79
2021/11/10 01:07:38;;;;;;;;;;;5.50;99.90;;;;;;5104412;28;19967;-79
2021/11/10 01:10:04;;;;;;;;;;;5.40;1.00;;;;;;5100287;28;19912;-80
2021/11/10 01:12:30;;;;;;;;;;;5.30;99.90;;;;;;5101409;28;19921;-79
2021/11/10 01:14:56;;;;;;;;;;;5.30;1.00;;;;;;5098433;28;19916;-79
2021/11/10 01:17:22;;;;;;;;;;;5.30;1.00;;;;;;5102288;28;20332;-80
2021/11/10 01:19:47;;;;;;;;;;;5.30;1.00;;;;;;5090455;28;19920;-79
2021/11/10 01:22:13;;;;;;;;;;;5.30;1.00;;;;;;5102450;28;20015;-79
2021/11/10 01:24:39;;;;;;;;;;;5.30;99.90;;;;;;5096902;28;20010;-79
2021/11/10 01:27:04;;;;;;;;;;;5.30;99.90;;;;;;5099163;28;19923;-79
2021/11/10 01:29:30;;;;;;;;;;;5.20;99.90;;;;;;5102975;28;19912;-80
2021/11/10 01:31:56;;;;;;;;;;;5.20;99.90;;;;;;5101476;28;19951;-80
2021/11/10 01:34:21;;;;;;;;;;;5.20;58.60;;;;;;5096967;28;19912;-79
2021/11/10 01:36:47;;;;;;;;;;;5.10;37.40;;;;;;5090894;28;19947;-79
2021/11/10 01:39:12;;;;;;;;;;;5.10;99.90;;;;;;5103054;28;19920;-79
2021/11/10 01:41:40;;;;;;;;;;;5.00;99.90;;;;;;5101692;28;19916;-79
2021/11/10 01:44:12;;;;;;;;;;;5.00;99.90;;;;;;5099310;28;20026;-79
2021/11/10 01:46:38;;;;;;;;;;;4.90;99.90;;;;;;5101885;28;19934;-79
2021/11/10 01:49:03;;;;;;;;;;;4.90;99.90;;;;;;5095949;28;19981;-79
2021/11/10 01:51:29;;;;;;;;;;;4.90;99.90;;;;;;5097069;28;19912;-79
2021/11/10 01:53:54;;;;;;;;;;;4.90;99.90;;;;;;5094656;28;19913;-80
2021/11/10 01:56:20;;;;;;;;;;;4.90;99.90;;;;;;5104602;28;19908;-78
2021/11/10 01:58:45;;;;;;;;;;;4.90;36.30;;;;;;5100055;28;19924;-79
2021/11/10 02:01:11;;;;;;;;;;;4.90;1.00;;;;;;5090746;28;19924;-80
2021/11/10 02:03:36;;;;;;;;;;;4.80;1.60;;;;;;5097706;28;19958;-79
2021/11/10 02:06:02;;;;;;;;;;;4.80;1.00;;;;;;5099348;28;19995;-79
2021/11/10 02:08:27;;;;;;;;;;;4.70;1.00;;;;;;5097844;28;20355;-79
2021/11/10 02:10:56;;;;;;;;;;;4.70;1.00;;;;;;5099451;28;19920;-81
2021/11/10 02:13:21;;;;;;;;;;;4.60;99.90;;;;;;5095439;28;20409;-80
2021/11/10 02:15:46;;;;;;;;;;;4.50;99.90;;;;;;5106508;22;20376;-86
2021/11/10 02:18:12;;;;;;;;;;;4.50;19.30;;;;;;5055886;28;19920;-84
2021/11/10 02:20:37;;;;;;;;;;;4.50;99.90;;;;;;5058312;28;20008;-85
2021/11/10 02:23:03;;;;;;;;;;;4.50;99.90;;;;;;5054601;28;20427;-84
2021/11/10 02:25:29;;;;;;;;;;;4.40;1.00;;;;;;5055099;28;20430;-84
2021/11/10 02:27:56;;;;;;;;;;;4.40;99.90;;;;;;5070317;28;19917;-85
2021/11/10 02:30:22;;;;;;;;;;;4.40;99.90;;;;;;5070860;28;19964;-85
2021/11/10 02:32:49;;;;;;;;;;;4.40;38.50;;;;;;5074119;28;19920;-84
2021/11/10 02:35:19;;;;;;;;;;;4.50;1.00;;;;;;5073183;28;20300;-84
2021/11/10 02:37:47;;;;;;;;;;;4.40;99.90;;;;;;5075289;28;19950;-85
2021/11/10 02:40:13;;;;;;;;;;;4.40;99.90;;;;;;5074207;28;19920;-85
2021/11/10 02:42:39;;;;;;;;;;;4.40;99.90;;;;;;5075671;28;19916;-85
2021/11/10 02:45:07;;;;;;;;;;;4.40;99.90;;;;;;5070499;28;19916;-85
2021/11/10 02:47:34;;;;;;;;;;;4.50;99.90;;;;;;5068531;28;19920;-84
2021/11/10 02:49:59;;;;;;;;;;;4.50;1.00;;;;;;5079123;28;19912;-84
2021/11/10 02:52:25;;;;;;;;;;;4.50;1.00;;;;;;5073205;28;19936;-84
2021/11/10 02:54:53;;;;;;;;;;;4.40;1.00;;;;;;5056102;28;19920;-84
2021/11/10 02:57:18;;;;;;;;;;;4.40;1.00;;;;;;5043573;28;19917;-85
2021/11/10 02:59:44;;;;;;;;;;;4.40;1.00;;;;;;5068875;28;20006;-85
2021/11/10 03:02:10;;;;;;;;;;;4.40;1.00;;;;;;5071364;28;19978;-86
2021/11/10 03:04:43;;;;;;;;;;;4.30;1.00;;;;;;5070180;28;19948;-85
2021/11/10 03:07:09;;;;;;;;;;;4.40;99.90;;;;;;5072787;28;19951;-86
2021/11/10 03:09:35;;;;;;;;;;;4.30;99.90;;;;;;5072170;28;19940;-86
2021/11/10 03:12:01;;;;;;;;;;;4.30;99.90;;;;;;5048414;28;19923;-86
2021/11/10 03:14:27;;;;;;;;;;;4.30;99.90;;;;;;5053490;28;19931;-86
2021/11/10 03:16:53;;;;;;;;;;;4.30;99.90;;;;;;5050983;28;20551;-86
2021/11/10 03:19:19;;;;;;;;;;;4.30;99.90;;;;;;5053876;28;19967;-86
2021/11/10 03:21:44;;;;;;;;;;;4.20;99.90;;;;;;5052880;28;19940;-85
2021/11/10 03:24:10;;;;;;;;;;;4.20;99.90;;;;;;5070747;28;19913;-85
2021/11/10 03:26:35;;;;;;;;;;;4.20;99.90;;;;;;5072813;28;20291;-86
2021/11/10 03:29:03;;;;;;;;;;;4.20;99.90;;;;;;5070721;28;19919;-85
2021/11/10 03:31:38;;;;;;;;;;;4.20;99.90;;;;;;5071859;28;19939;-85
2021/11/10 03:34:04;;;;;;;;;;;4.10;1.00;;;;;;5050167;28;19919;-86
2021/11/10 03:36:30;;;;;;;;;;;4.10;1.00;;;;;;5070772;28;19958;-86
2021/11/10 03:38:55;;;;;;;;;;;4.10;1.00;;;;;;5058369;28;19917;-86
2021/11/10 03:41:21;;;;;;;;;;;4.10;15.70;;;;;;5072141;28;20436;-85
2021/11/10 03:43:47;;;;;;;;;;;4.10;1.00;;;;;;5052494;28;19913;-85
2021/11/10 03:46:13;;;;;;;;;;;4.00;1.00;;;;;;5065206;28;20419;-86
2021/11/10 03:48:38;;;;;;;;;;;4.00;1.00;;;;;;5072467;28;19916;-86
2021/11/10 03:51:04;;;;;;;;;;;4.00;1.00;;;;;;5057208;28;19954;-86
2021/11/10 03:53:29;;;;;;;;;;;4.00;1.00;;;;;;5066076;28;19917;-85
2021/11/10 03:55:55;;;;;;;;;;;4.00;1.00;;;;;;5070709;28;19912;-85
2021/11/10 03:58:20;;;;;;;;;;;4.00;1.00;;;;;;5052827;28;19920;-85
2021/11/10 04:00:46;;;;;;;;;;;3.90;1.00;;;;;;5071693;28;20264;-85
2021/11/10 04:03:12;;;;;;;;;;;3.90;1.00;;;;;;5053628;28;19913;-86
2021/11/10 04:05:37;;;;;;;;;;;3.90;1.00;;;;;;5070720;28;19912;-86
2021/11/10 04:08:03;;;;;;;;;;;3.90;1.00;;;;;;5054688;28;19913;-86
2021/11/10 04:10:28;;;;;;;;;;;3.90;1.00;;;;;;5070052;28;19912;-85
2021/11/10 04:12:54;;;;;;;;;;;3.90;1.00;;;;;;5054587;28;20304;-85
2021/11/10 04:15:19;;;;;;;;;;;3.90;1.00;;;;;;5057232;28;19924;-86
2021/11/10 04:17:45;;;;;;;;;;;3.90;1.00;;;;;;5075632;28;19986;-85
2021/11/10 04:20:11;;;;;;;;;;;3.90;1.00;;;;;;5074808;28;20493;-86
2021/11/10 04:22:36;;;;;;;;;;;3.90;1.00;;;;;;5075425;28;19997;-85
2021/11/10 04:25:02;;;;;;;;;;;3.90;1.00;;;;;;5074826;28;20350;-86
2021/11/10 04:27:27;;;;;;;;;;;3.90;1.00;;;;;;5045248;28;19909;-85
2021/11/10 04:29:53;;;;;;;;;;;3.90;1.00;;;;;;5073273;28;20015;-86
2021/11/10 04:32:19;;;;;;;;;;;3.90;1.00;;;;;;5067389;28;19913;-86
2021/11/10 04:34:44;;;;;;;;;;;3.90;1.00;;;;;;5074039;28;20006;-86
2021/11/10 04:37:11;;;;;;;;;;;3.80;1.00;;;;;;5074457;28;19919;-86
2021/11/10 04:39:37;;;;;;;;;;;3.80;1.00;;;;;;5075288;28;19913;-86
2021/11/10 04:42:03;;;;;;;;;;;3.80;1.00;;;;;;5074544;28;20387;-86
2021/11/10 04:44:29;;;;;;;;;;;3.80;1.00;;;;;;5055401;28;19939;-86
2021/11/10 04:46:56;;;;;;;;;;;3.70;1.00;;;;;;5073759;28;19912;-86
2021/11/10 04:49:22;;;;;;;;;;;3.70;13.10;;;;;;5072542;28;19913;-86
2021/11/10 04:51:47;;;;;;;;;;;3.60;25.50;;;;;;5054408;28;19938;-86
2021/11/10 04:54:18;;;;;;;;;;;3.60;81.50;;;;;;5074588;28;19912;-86
2021/11/10 04:56:43;;;;;;;;;;;3.60;99.90;;;;;;5074117;28;19913;-86
2021/11/10 04:59:09;;;;;;;;;;;3.50;99.90;;;;;;5072703;28;19966;-86
2021/11/10 05:01:38;;;;;;;;;;;3.50;99.90;;;;;;5073787;28;19917;-86
2021/11/10 05:04:04;;;;;;;;;;;3.50;99.90;;;;;;5072782;28;19920;-86
2021/11/10 05:06:30;;;;;;;;;;;3.50;99.90;;;;;;5062295;28;19912;-86
2021/11/10 05:08:56;;;;;;;;;;;3.50;99.90;;;;;;5054206;28;20428;-86
2021/11/10 05:11:21;;;;;;;;;;;3.50;99.90;;;;;;5074231;28;19919;-86
2021/11/10 05:13:47;;;;;;;;;;;3.50;99.90;;;;;;5074102;28;19999;-86
2021/11/10 05:16:12;;;;;;;;;;;3.50;99.90;;;;;;5056374;28;20006;-86
2021/11/10 05:18:38;;;;;;;;;;;3.50;99.90;;;;;;5074034;28;19917;-86
2021/11/10 05:21:03;;;;;;;;;;;3.50;99.90;;;;;;5072306;28;20603;-86
2021/11/10 05:23:29;;;;;;;;;;;3.50;20.40;;;;;;5078619;28;20434;-86
2021/11/10 05:25:54;;;;;;;;;;;3.50;1.00;;;;;;5049363;28;19990;-86
2021/11/10 05:28:19;;;;;;;;;;;3.40;1.00;;;;;;5074816;28;20049;-86
2021/11/10 05:30:45;;;;;;;;;;;3.40;1.00;;;;;;5052385;28;19919;-86
2021/11/10 05:33:10;;;;;;;;;;;3.40;99.90;;;;;;5074430;28;19943;-86
2021/11/10 05:35:36;;;;;;;;;;;3.50;99.90;;;;;;5072776;28;19912;-86
2021/11/10 05:38:01;;;;;;;;;;;3.50;99.90;;;;;;5071944;28;19912;-86
2021/11/10 05:40:27;;;;;;;;;;;3.50;99.90;;;;;;5072636;28;19923;-86
2021/11/10 05:42:53;;;;;;;;;;;3.50;99.90;;;;;;5073311;28;19959;-86
2021/11/10 05:45:18;;;;;;;;;;;3.50;99.90;;;;;;5072658;28;19913;-86
2021/11/10 05:47:45;;;;;;;;;;;3.50;1.00;;;;;;5073767;28;19912;-86
2021/11/10 05:50:11;;;;;;;;;;;3.50;1.00;;;;;;5073718;28;20394;-86
2021/11/10 05:52:37;;;;;;;;;;;3.40;1.00;;;;;;5073794;28;19920;-86
2021/11/10 05:55:04;;;;;;;;;;;3.40;99.90;;;;;;5054035;28;19912;-86
2021/11/10 05:57:30;;;;;;;;;;;3.40;99.90;;;;;;5066249;28;19916;-86
2021/11/10 05:59:55;;;;;;;;;;;3.30;99.90;;;;;;5073349;28;19912;-86
2021/11/10 06:02:21;;;;;;;;;;;3.30;99.90;;;;;;5072616;28;19916;-86
2021/11/10 06:04:47;;;;;;;;;;;3.30;99.90;;;;;;5055077;28;19966;-86
2021/11/10 06:07:12;;;;;;;;;;;3.30;99.90;;;;;;5072668;28;20358;-86
2021/11/10 06:09:38;;;;;;;;;;;3.30;99.90;;;;;;5073316;28;20370;-86
2021/11/10 06:12:03;;;;;;;;;;;3.30;99.90;;;;;;5053995;28;19916;-86
2021/11/10 06:14:29;;;;;;;;;;;3.20;99.90;;;;;;5068233;28;19919;-85
2021/11/10 06:16:54;;;;;;;;;;;3.20;99.90;;;;;;5071803;28;19935;-86
2021/11/10 06:19:20;;;;;;;;;;;3.20;99.90;;;;;;5073085;28;19912;-86
2021/11/10 06:21:45;;;;;;;;;;;3.20;99.90;;;;;;5071434;28;19924;-86
2021/11/10 06:24:13;;;;;;;;;;;3.20;99.90;;;;;;5054912;28;19962;-86
2021/11/10 06:26:39;;;;;;;;;;;3.20;99.90;;;;;;5071862;28;20334;-86
2021/11/10 06:29:04;;;;;;;;;;;3.20;99.90;;;;;;5071152;28;20010;-86
2021/11/10 06:31:30;;;;;;;;;;;3.20;99.90;;;;;;5072161;28;19913;-86
2021/11/10 06:33:55;;;;;;;;;;;3.20;99.90;;;;;;5072324;28;19948;-86
2021/11/10 06:36:21;;;;;;;;;;;3.20;99.90;;;;;;5072078;28;19947;-86
2021/11/10 06:38:46;;;;;;;;;;;3.20;1.00;;;;;;5074458;28;20781;-82
2021/11/10 06:41:18;;;;;;;;;;;3.20;1.00;;;;;;5075313;28;19920;-83
2021/11/10 06:43:44;;;;;;;;;;;3.30;1.00;;;;;;5074210;28;19938;-83
2021/11/10 06:46:10;;;;;;;;;;;3.40;1.00;;;;;;5071171;28;19912;-84
2021/11/10 06:48:35;;;;;;;;;;;3.40;1.00;;;;;;5069719;28;19912;-83
2021/11/10 06:51:01;;;;;;;;;;;3.50;99.90;;;;;;5075009;28;19913;-83
2021/11/10 06:53:26;;;;;;;;;;;3.40;99.90;;;;;;5074307;28;19917;-82
2021/11/10 06:55:52;;;;;;;;;;;3.40;1.00;;;;;;5059503;28;19954;-83
2021/11/10 06:58:17;;;;;;;;;;;3.40;64.70;;;;;;5066708;28;19916;-83
2021/11/10 07:00:43;;;;;;;;;;;3.40;99.90;;;;;;5076051;28;20384;-83
2021/11/10 07:03:08;;;;;;;;;;;3.50;99.90;;;;;;5073537;28;19924;-83
2021/11/10 07:05:34;;;;;;;;;;;3.50;99.90;;;;;;5070930;28;20369;-82
2021/11/10 07:08:00;;;;;;;;;;;3.50;99.90;;;;;;5072809;28;19951;-82
2021/11/10 07:10:25;;;;;;;;;;;3.60;99.90;;;;;;5057514;28;20011;-83
2021/11/10 07:12:51;;;;;;;;;;;3.80;99.90;;;;;;5073163;28;19912;-83
2021/11/10 07:15:17;;;;;;;;;;;3.90;99.90;;;;;;5074422;28;19912;-82
2021/11/10 07:17:42;;;;;;;;;;;4.00;1.00;;;;;;5075345;28;19917;-83
2021/11/10 07:20:08;;;;;;;;;;;4.00;1.00;;;;;;5055519;28;19913;-84
2021/11/10 07:22:33;;;;;;;;;;;4.10;99.90;;;;;;5057316;28;20019;-83
2021/11/10 07:24:59;;;;;;;;;;;4.10;99.90;;;;;;5072392;28;20280;-83
2021/11/10 07:27:24;;;;;;;;;;;4.20;1.00;;;;;;5073778;28;20398;-84
2021/11/10 07:29:50;;;;;;;;;;;4.30;99.90;;;;;;5070697;28;19916;-84
2021/11/10 07:32:15;;;;;;;;;;;4.40;1.00;;;;;;5071433;28;20317;-84
2021/11/10 07:34:41;;;;;;;;;;;4.50;99.90;;;;;;5068734;28;19919;-84
2021/11/10 07:37:08;;;;;;;;;;;4.60;1.00;;;;;;5071950;28;20384;-85
2021/11/10 07:39:34;;;;;;;;;;;4.70;99.90;;;;;;5070516;28;19916;-84
2021/11/10 07:41:59;;;;;;;;;;;4.80;99.90;;;;;;5052363;28;20329;-85
2021/11/10 07:44:25;;;;;;;;;;;5.00;53.60;;;;;;5074734;28;20269;-84
2021/11/10 07:47:05;;;;;;;;;;;5.40;1.00;;;;;;5075532;28;20295;-84
2021/11/10 07:49:31;;;;;;;;;;;6.80;84.90;;;;;;5069586;28;19913;-85
2021/11/10 07:51:56;;;;;;;;;;;8.70;99.90;;;;;;5071658;28;19962;-85
2021/11/10 07:54:22;;;;;;;;;;;10.20;1.00;;;;;;5049370;28;20010;-85
2021/11/10 07:56:47;;;;;;;;;;;11.50;1.00;;;;;;5075877;28;19966;-86
2021/11/10 07:59:13;;;;;;;;;;;12.60;1.00;;;;;;5054207;28;19951;-85
2021/11/10 08:01:38;;;;;;;;;;;12.60;1.00;;;;;;5074760;28;19917;-84
2021/11/10 08:04:04;;;;;;;;;;;12.20;99.90;;;;;;5063600;28;19920;-85
2021/11/10 08:06:32;;;;;;;;;;;12.50;99.90;;;;;;5067822;28;19922;-85
2021/11/10 08:08:58;;;;;;;;;;;13.60;99.90;;;;;;5049422;28;20379;-85
2021/11/10 08:11:23;;;;;;;;;;;14.60;99.90;;;;;;5073753;28;19952;-85
2021/11/10 08:13:49;;;;;;;;;;;15.70;99.90;;;;;;5071286;28;19913;-85
2021/11/10 08:16:15;;;;;;;;;;;16.40;99.90;;;;;;5067922;28;20441;-85
2021/11/10 08:18:40;;;;;;;;;;;16.90;99.90;;;;;;5048486;28;19916;-86
2021/11/10 08:21:06;;;;;;;;;;;17.10;99.90;;;;;;5075480;28;20046;-85
2021/11/10 08:23:31;;;;;;;;;;;16.60;99.90;;;;;;5083030;22;19925;-79
2021/11/10 08:25:57;;;;;;;;;;;16.10;99.90;;;;;;5063389;28;19976;-79
2021/11/10 08:28:23;;;;;;;;;;;15.30;99.90;;;;;;5062585;28;19956;-79
2021/11/10 08:30:48;;;;;;;;;;;14.50;99.90;;;;;;5045623;28;19913;-79
2021/11/10 08:33:14;;;;;;;;;;;14.00;99.90;;;;;;5055604;28;19946;-80
2021/11/10 08:35:40;;;;;;;;;;;13.80;99.90;;;;;;5061419;28;19920;-80
2021/11/10 08:38:06;;;;;;;;;;;14.30;99.90;;;;;;5061607;28;19913;-79
2021/11/10 08:40:32;;;;;;;;;;;14.90;99.90;;;;;;5047138;28;19920;-80
2021/11/10 08:42:58;;;;;;;;;;;15.20;99.90;;;;;;5045970;28;19925;-77
2021/11/10 08:45:25;;;;;;;;;;;15.50;99.90;;;;;;5049724;28;19947;-78
2021/11/10 08:47:52;;;;;;;;;;;15.80;99.90;;;;;;5057680;28;19920;-80
2021/11/10 08:50:19;;;;;;;;;;;16.00;99.90;;;;;;5041798;28;19919;-81
2021/11/10 08:52:45;;;;;;;;;;;16.10;99.90;;;;;;5055045;28;19972;-78
2021/11/10 08:55:11;;;;;;;;;;;16.00;99.90;;;;;;5045926;28;20020;-80
2021/11/10 08:57:37;;;;;;;;;;;15.90;99.90;;;;;;5058965;28;19923;-78
2021/11/10 09:00:08;;;;;;;;;;;15.50;99.90;;;;;;5040916;28;20396;-77
2021/11/10 09:02:33;;;;;;;;;;;15.00;99.90;;;;;;5036643;28;20301;-79
2021/11/10 09:04:59;;;;;;;;;;;14.30;99.90;;;;;;5038505;28;19912;-78
2021/11/10 09:07:25;;;;;;;;;;;13.60;99.90;;;;;;5040921;28;19913;-78
2021/11/10 09:09:50;;;;;;;;;;;13.20;99.90;;;;;;5038512;28;20296;-79
2021/11/10 09:12:16;;;;;;;;;;;12.80;99.90;;;;;;5040902;28;19913;-79
2021/11/10 09:14:41;;;;;;;;;;;12.70;99.90;;;;;;5041721;28;19913;-79
2021/11/10 09:17:06;;;;;;;;;;;12.30;99.90;;;;;;5036580;28;19913;-79
2021/11/10 09:19:32;;;;;;;;;;;12.00;99.90;;;;;;5044827;28;20481;-79
2021/11/10 09:21:57;;;;;;;;;;;11.90;99.90;;;;;;5023108;28;19924;-79
2021/11/10 09:24:23;;;;;;;;;;;11.60;99.90;;;;;;5041344;28;20273;-79
2021/11/10 09:26:50;;;;;;;;;;;11.50;99.90;;;;;;5052602;28;19917;-81
2021/11/10 09:29:19;;;;;;;;;;;11.60;99.90;;;;;;5052852;28;19913;-79
2021/11/10 09:31:45;;;;;;;;;;;11.70;99.90;;;;;;5037259;28;19913;-77
2021/11/10 09:34:12;;;;;;;;;;;11.80;99.90;;;;;;5040058;28;19935;-77
2021/11/10 09:36:41;;;;;;;;;;;12.00;99.90;;;;;;5043552;28;19913;-78
2021/11/10 09:39:06;;;;;;;;;;;12.20;99.90;;;;;;5043276;28;19913;-80
2021/11/10 09:41:34;;;;;;;;;;;12.30;99.90;;;;;;5043124;28;20292;-78
2021/11/10 09:44:00;;;;;;;;;;;12.40;99.90;;;;;;5040574;28;19924;-79
2021/11/10 09:46:25;;;;;;;;;;;12.60;99.90;;;;;;5041961;28;19935;-78
2021/11/10 09:48:52;;;;;;;;;;;12.70;99.90;;;;;;5045078;28;20000;-77
2021/11/10 09:51:18;;;;;;;;;;;12.70;99.90;;;;;;5043902;28;20269;-78
2021/11/10 09:53:43;;;;;;;;;;;12.80;99.90;;;;;;5020232;28;19921;-80
2021/11/10 09:56:09;;;;;;;;;;;12.80;99.90;;;;;;5040731;28;19936;-77
2021/11/10 09:58:34;;;;;;;;;;;12.90;99.90;;;;;;5040499;28;19932;-79
2021/11/10 10:01:03;;;;;;;;;;;13.00;99.90;;;;;;5032565;28;19913;-79
2021/11/10 10:03:28;;;;;;;;;;;13.10;99.90;;;;;;5032726;28;20298;-77
2021/11/10 10:05:55;;;;;;;;;;;13.20;99.90;;;;;;5014959;28;19913;-79
2021/11/10 10:08:21;;;;;;;;;;;13.30;99.90;;;;;;5034740;28;20434;-77
2021/11/10 10:10:47;;;;;;;;;;;13.40;99.90;;;;;;5035987;28;19959;-80
2021/11/10 10:13:13;;;;;;;;;;;13.50;99.90;;;;;;5054582;28;19916;-80
2021/11/10 10:15:42;;;;;;;;;;;13.70;99.90;;;;;;5045704;28;19946;-79
2021/11/10 10:18:27;;;;;;;;;;;13.90;99.90;;;;;;5049599;28;20200;-79
2021/11/10 10:20:57;;;;;;;;;;;14.10;99.90;;;;;;5046567;28;19913;-81
2021/11/10 10:23:25;;;;;;;;;;;14.20;99.90;;;;;;5032357;28;20007;-79
2021/11/10 10:25:56;;;;;;;;;;;14.20;99.90;;;;;;5052612;28;19924;-79
2021/11/10 10:28:25;;;;;;;;;;;14.10;99.90;;;;;;5042741;28;19913;-81
2021/11/10 10:30:52;;;;;;;;;;;14.20;99.90;;;;;;5029760;28;20423;-79
2021/11/10 10:33:26;;;;;;;;;;;14.30;99.90;;;;;;5028943;28;19952;-80
2021/11/10 10:36:00;;;;;;;;;;;14.30;99.90;;;;;;5025532;28;19956;-79
2021/11/10 10:38:48;;;;;;;;;;;14.40;99.90;;;;;;5036770;28;19913;-79
2021/11/10 10:41:15;;;;;;;;;;;14.60;99.90;;;;;;5043502;28;19976;-81
2021/11/10 10:43:49;;;;;;;;;;;14.80;99.90;;;;;;5048749;28;19947;-79
2021/11/10 10:46:17;;;;;;;;;;;15.00;99.90;;;;;;5049469;28;19921;-80
2021/11/10 10:48:43;;;;;;;;;;;15.20;99.90;;;;;;5027191;28;20016;-80
2021/11/10 10:51:10;;;;;;;;;;;15.40;99.90;;;;;;5045952;28;19936;-80
2021/11/10 10:53:39;;;;;;;;;;;15.50;99.90;;;;;;5042811;28;19913;-81
2021/11/10 10:56:15;;;;;;;;;;;15.80;99.90;;;;;;5045163;28;19983;-80
2021/11/10 10:58:41;;;;;;;;;;;16.40;99.90;;;;;;5057785;28;19921;-81
2021/11/10 11:01:20;;;;;;;;;;;16.90;99.90;;;;;;5027437;28;19913;-80
2021/11/10 11:04:04;;;;;;;;;;;17.70;99.90;;;;;;5049570;28;19913;-80
2021/11/10 11:06:35;;;;;;;;;;;18.30;99.90;;;;;;5037802;28;19913;-82
2021/11/10 11:09:14;;;;;;;;;;;19.20;99.90;;;;;;5043664;28;20280;-81
2021/11/10 11:11:54;;;;;;;;;;;19.80;99.90;;;;;;5042028;28;19939;-81
2021/11/10 11:15:02;;;;;;;;;;;20.40;99.90;;;;;;5033375;28;19914;-81
2021/11/10 11:17:18;;;;;;;;;;;20.70;99.90;;;;;;5037006;28;19982;-80
2021/11/10 11:20:00;;;;;;;;;;;21.20;99.90;;;;;;5039388;28;19914;-81
2021/11/10 11:22:27;;;;;;;;;;;21.90;99.90;;;;;;5020978;28;19924;-80
2021/11/10 11:24:52;;;;;;;;;;;22.30;99.90;;;;;;5040520;28;19914;-81
2021/11/10 11:27:23;;;;;;;;;;;22.80;99.90;;;;;;5028872;28;19920;-80
2021/11/10 11:30:08;;;;;;;;;;;23.20;99.90;;;;;;5044904;28;20324;-81
2021/11/10 11:32:35;;;;;;;;;;;23.50;99.90;;;;;;5040505;28;19909;-81
2021/11/10 11:35:04;;;;;;;;;;;23.90;99.90;;;;;;5026237;28;19913;-80
2021/11/10 11:37:30;;;;;;;;;;;24.30;99.90;;;;;;5036467;28;19913;-80
2021/11/10 11:39:59;;;;;;;;;;;24.70;99.90;;;;;;5041212;28;19916;-79
2021/11/10 11:42:26;;;;;;;;;;;24.60;99.90;;;;;;5044981;28;19924;-81
2021/11/10 11:44:52;;;;;;;;;;;24.70;99.90;;;;;;5041455;28;19925;-81
2021/11/10 11:47:18;;;;;;;;;;;24.60;99.90;;;;;;5041456;28;20511;-81
2021/11/10 11:49:45;;;;;;;;;;;24.40;99.90;;;;;;5039992;28;20062;-81
2021/11/10 11:52:11;;;;;;;;;;;23.80;99.90;;;;;;5043215;28;19913;-78
2021/11/10 11:54:42;;;;;;;;;;;23.40;99.90;;;;;;5044193;28;19955;-82
2021/11/10 11:57:08;;;;;;;;;;;23.20;99.90;;;;;;5026693;28;19920;-81
2021/11/10 11:59:34;;;;;;;;;;;22.70;99.90;;;;;;5024964;28;19932;-81
2021/11/10 12:02:17;;;;;;;;;;;22.10;99.90;;;;;;5029422;28;19917;-81
2021/11/10 12:04:45;;;;;;;;;;;20.70;99.90;;;;;;5040084;28;19936;-80
2021/11/10 12:07:10;;;;;;;;;;;19.70;99.90;;;;;;5041152;28;19913;-80
2021/11/10 12:09:36;;;;;;;;;;;19.10;99.90;;;;;;5040360;28;19913;-80
2021/11/10 12:12:09;;;;;;;;;;;18.30;99.90;;;;;;5018986;28;19980;-80
2021/11/10 12:14:35;;;;;;;;;;;17.50;99.90;;;;;;5045986;28;19919;-80
2021/11/10 12:17:07;;;;;;;;;;;16.80;99.90;;;;;;5040323;28;19968;-80
2021/11/10 12:19:37;;;;;;;;;;;16.40;99.90;;;;;;5045134;28;19991;-80
2021/11/10 12:22:09;;;;;;;;;;;16.10;99.90;;;;;;5022594;28;19924;-79
2021/11/10 12:24:46;;;;;;;;;;;16.20;99.90;;;;;;5038992;28;19921;-79
2021/11/10 12:27:14;;;;;;;;;;;16.20;99.90;;;;;;5044899;28;19935;-80
2021/11/10 12:29:40;;;;;;;;;;;16.10;99.90;;;;;;5049449;28;19920;-80
2021/11/10 12:32:06;;;;;;;;;;;15.70;99.90;;;;;;5050076;28;19939;-79
2021/11/10 12:34:33;;;;;;;;;;;15.30;99.90;;;;;;5049212;28;19917;-80
2021/11/10 12:36:59;;;;;;;;;;;15.20;99.90;;;;;;5044336;28;19916;-81
2021/11/10 12:39:35;;;;;;;;;;;15.60;99.90;;;;;;5030012;28;19918;-80
2021/11/10 12:42:04;;;;;;;;;;;15.80;99.90;;;;;;5044583;28;19975;-80
2021/11/10 12:44:30;;;;;;;;;;;15.90;99.90;;;;;;5043753;28;19955;-80
2021/11/10 12:46:55;;;;;;;;;;;16.10;99.90;;;;;;5048660;28;19916;-79
2021/11/10 12:49:21;;;;;;;;;;;15.60;99.90;;;;;;5031506;28;19913;-80
2021/11/10 12:52:07;;;;;;;;;;;15.40;99.90;;;;;;5044744;28;19969;-80
2021/11/10 12:54:32;;;;;;;;;;;15.30;99.90;;;;;;5021101;28;19917;-80
2021/11/10 12:56:58;;;;;;;;;;;15.70;99.90;;;;;;5040801;28;19909;-81
2021/11/10 12:59:31;;;;;;;;;;;16.40;99.90;;;;;;5043590;28;19913;-80
2021/11/10 13:01:58;;;;;;;;;;;16.70;99.90;;;;;;5054619;28;20020;-80
2021/11/10 13:04:28;;;;;;;;;;;16.70;99.90;;;;;;5044708;28;19917;-79
2021/11/10 13:06:59;;;;;;;;;;;16.90;99.90;;;;;;5047858;28;19913;-80
2021/11/10 13:12:00;;;;;;;;;;;17.80;99.90;;;;;;5042417;28;19920;-81
2021/11/10 13:14:27;;;;;;;;;;;18.10;99.90;;;;;;5048303;28;19908;-81
2021/11/10 13:17:06;;;;;;;;;;;18.40;99.90;;;;;;5049801;28;20391;-80
2021/11/10 13:19:37;;;;;;;;;;;18.60;99.90;;;;;;5045847;28;20007;-81
2021/11/10 13:22:04;;;;;;;;;;;18.50;99.90;;;;;;5048808;28;19951;-80
2021/11/10 13:24:29;;;;;;;;;;;18.40;99.90;;;;;;5046347;28;19940;-81
2021/11/10 13:26:55;;;;;;;;;;;17.80;99.90;;;;;;5045089;28;19913;-80
2021/11/10 13:29:21;;;;;;;;;;;17.60;99.90;;;;;;5042556;28;19936;-81
2021/11/10 13:31:46;;;;;;;;;;;17.50;99.90;;;;;;5044217;28;19913;-79
2021/11/10 13:34:12;;;;;;;;;;;17.30;99.90;;;;;;5051033;28;19929;-80
2021/11/10 13:36:39;;;;;;;;;;;16.90;99.90;;;;;;5048552;28;20004;-80
2021/11/10 13:39:11;;;;;;;;;;;16.70;99.90;;;;;;5055474;28;19913;-80
2021/11/10 13:41:36;;;;;;;;;;;16.30;99.90;;;;;;5042322;28;19921;-80
2021/11/10 13:44:08;;;;;;;;;;;16.40;99.90;;;;;;5048043;28;19917;-80
2021/11/10 13:46:33;;;;;;;;;;;16.50;99.90;;;;;;5044479;28;21162;-81
2021/11/10 13:49:02;;;;;;;;;;;16.50;99.90;;;;;;5044693;28;19913;-81
2021/11/10 13:51:28;;;;;;;;;;;16.30;99.90;;;;;;5044463;28;19913;-81
2021/11/10 13:54:07;;;;;;;;;;;16.40;99.90;;;;;;5049349;28;19919;-81
2021/11/10 13:56:39;;;;;;;;;;;16.70;99.90;;;;;;5045510;28;20130;-81
2021/11/10 13:59:12;;;;;;;;;;;17.10;99.90;;;;;;5037822;28;19912;-80
2021/11/10 14:01:46;;;;;;;;;;;17.20;99.90;;;;;;5048550;28;19924;-81
2021/11/10 14:04:14;;;;;;;;;;;17.30;99.90;;;;;;5045305;28;19909;-81
2021/11/10 14:06:59;;;;;;;;;;;17.20;99.90;;;;;;5049274;28;20524;-81
2021/11/10 14:09:24;;;;;;;;;;;17.30;99.90;;;;;;5032961;28;19929;-81
2021/11/10 14:11:50;;;;;;;;;;;17.50;99.90;;;;;;5046026;28;20338;-80
2021/11/10 14:14:30;;;;;;;;;;;17.80;99.90;;;;;;5048941;28;19916;-81
2021/11/10 14:16:56;;;;;;;;;;;17.70;99.90;;;;;;5050878;28;19913;-81
2021/11/10 14:19:21;;;;;;;;;;;17.60;99.90;;;;;;5027288;28;19904;-81
2021/11/10 14:21:52;;;;;;;;;;;17.60;99.90;;;;;;5046934;28;19923;-81
2021/11/10 14:24:22;;;;;;;;;;;17.30;99.90;;;;;;5069176;22;19925;-85
2021/11/10 14:26:48;;;;;;;;;;;17.20;99.90;;;;;;5057806;28;19967;-84
2021/11/10 14:29:14;;;;;;;;;;;17.20;99.90;;;;;;5054025;28;19913;-84